createdAt,value
2019-03-02T00:00:02.146Z,23.17
2019-03-02T00:02:31.868Z,23.37
2019-03-02T00:05:02.184Z,22.50
2019-03-02T00:07:32.520Z,25.27
2019-03-02T00:10:02.908Z,26.13
2019-03-02T00:12:33.273Z,23.37
2019-03-02T00:15:03.589Z,27.37
2019-03-02T00:17:34.092Z,24.83
2019-03-02T00:20:04.630Z,24.50
2019-03-02T00:22:34.942Z,25.23
2019-03-02T00:25:05.401Z,30.20
2019-03-02T00:27:35.717Z,30.53
2019-03-02T00:30:06.665Z,28.47
2019-03-02T00:32:37.028Z,30.43
2019-03-02T00:35:08.235Z,34.47
2019-03-02T00:37:39.075Z,32.37
2019-03-02T00:40:09.604Z,27.93
2019-03-02T00:42:40.352Z,32.17
2019-03-02T00:45:14.054Z,32.27
2019-03-02T00:47:42.708Z,33.33
2019-03-02T00:50:13.133Z,31.37
2019-03-02T00:52:43.445Z,32.43
2019-03-02T00:55:13.853Z,35.57
2019-03-02T00:57:44.358Z,33.00
2019-03-02T01:00:16.243Z,32.70
2019-03-02T01:02:47.000Z,31.20
2019-03-02T01:05:17.417Z,31.60
2019-03-02T01:07:47.952Z,31.03
2019-03-02T01:10:21.056Z,30.07
2019-03-02T01:12:50.331Z,32.90
2019-03-02T01:15:20.638Z,35.57
2019-03-02T01:17:50.981Z,27.97
2019-03-02T01:20:24.721Z,27.33
2019-03-02T01:22:53.237Z,30.23
2019-03-02T01:25:23.564Z,33.00
2019-03-02T01:27:53.885Z,32.97
2019-03-02T01:30:26.670Z,35.27
2019-03-02T01:32:56.646Z,31.97
2019-03-02T01:35:26.949Z,31.73
2019-03-02T01:37:57.263Z,28.00
2019-03-02T01:40:27.600Z,27.77
2019-03-02T01:42:57.915Z,33.30
2019-03-02T01:45:28.991Z,29.93
2019-03-02T01:47:59.484Z,32.10
2019-03-02T01:50:29.881Z,28.67
2019-03-02T01:53:00.313Z,24.70
2019-03-02T01:55:31.272Z,24.37
2019-03-02T01:58:02.352Z,24.67
2019-03-02T02:00:32.860Z,25.43
2019-03-02T02:03:03.261Z,27.23
2019-03-02T02:05:33.575Z,30.27
2019-03-02T02:08:03.972Z,28.57
2019-03-02T02:10:34.628Z,28.70
2019-03-02T02:13:06.302Z,29.23
2019-03-02T02:15:39.129Z,30.20
2019-03-02T02:18:09.268Z,30.30
2019-03-02T02:20:39.662Z,29.80
2019-03-02T02:23:13.188Z,29.17
2019-03-02T02:25:41.954Z,28.30
2019-03-02T02:28:12.262Z,29.37
2019-03-02T02:30:42.613Z,31.13
2019-03-02T02:33:13.119Z,27.73
2019-03-02T02:35:43.453Z,31.00
2019-03-02T02:38:15.950Z,31.30
2019-03-02T02:40:45.765Z,32.33
2019-03-02T02:43:20.431Z,34.00
2019-03-02T02:45:49.109Z,29.03
2019-03-02T02:48:19.956Z,34.23
2019-03-02T02:50:50.338Z,29.97
2019-03-02T02:53:20.829Z,30.47
2019-03-02T02:55:51.112Z,33.73
2019-03-02T02:58:21.462Z,29.30
2019-03-02T03:00:55.214Z,32.50
2019-03-02T03:03:23.783Z,31.00
2019-03-02T03:05:55.597Z,35.90
2019-03-02T03:08:45.826Z,35.13
2019-03-02T03:11:18.920Z,37.00
2019-03-02T03:13:49.366Z,30.83
2019-03-02T03:16:19.726Z,30.90
2019-03-02T03:18:52.491Z,29.97
2019-03-02T03:21:27.152Z,30.53
2019-03-02T03:23:54.276Z,30.90
2019-03-02T03:26:24.619Z,34.07
2019-03-02T03:28:54.926Z,33.50
2019-03-02T03:31:26.676Z,31.43
2019-03-02T03:33:57.242Z,31.23
2019-03-02T03:36:30.207Z,32.07
2019-03-02T03:39:02.745Z,32.27
2019-03-02T03:41:31.492Z,30.47
2019-03-02T03:44:01.794Z,31.20
2019-03-02T03:46:32.114Z,28.57
2019-03-02T03:49:02.431Z,27.90
2019-03-02T03:51:34.806Z,28.63
2019-03-02T03:54:06.955Z,26.43
2019-03-02T03:56:37.658Z,30.27
2019-03-02T03:59:09.417Z,28.27
2019-03-02T04:01:40.087Z,26.40
2019-03-02T04:04:10.408Z,26.20
2019-03-02T04:06:40.964Z,23.57
2019-03-02T04:09:11.322Z,26.40
2019-03-02T04:11:43.312Z,21.03
2019-03-02T04:14:13.928Z,21.93
2019-03-02T04:16:44.280Z,20.90
2019-03-02T04:19:20.127Z,18.60
2019-03-02T04:21:50.453Z,17.47
2019-03-02T04:24:20.829Z,17.27
2019-03-02T04:26:51.162Z,19.17
2019-03-02T04:29:22.026Z,17.13
2019-03-02T04:31:52.505Z,16.47
2019-03-02T04:34:22.999Z,16.40
2019-03-02T04:36:53.405Z,16.67
2019-03-02T04:39:23.678Z,16.67
2019-03-02T04:41:54.045Z,17.43
2019-03-02T04:44:25.841Z,16.87
2019-03-02T04:46:56.312Z,16.17
2019-03-02T04:49:26.629Z,17.40
2019-03-02T04:51:57.091Z,18.37
2019-03-02T04:54:27.432Z,18.43
2019-03-02T04:56:58.967Z,17.97
2019-03-02T04:59:29.776Z,17.20
2019-03-02T05:02:00.105Z,19.17
2019-03-02T05:04:32.318Z,16.80
2019-03-02T05:07:02.377Z,17.43
2019-03-02T05:09:32.685Z,18.97
2019-03-02T05:12:03.009Z,20.67
2019-03-02T05:14:36.779Z,19.73
2019-03-02T05:17:07.329Z,19.73
2019-03-02T05:19:37.310Z,18.53
2019-03-02T05:22:07.576Z,19.40
2019-03-02T05:24:40.603Z,19.13
2019-03-02T05:27:10.561Z,18.13
2019-03-02T05:29:40.966Z,20.53
2019-03-02T05:32:12.543Z,20.20
2019-03-02T05:34:43.216Z,22.00
2019-03-02T05:37:13.553Z,18.50
2019-03-02T05:39:43.886Z,21.17
2019-03-02T05:42:14.631Z,17.80
2019-03-02T05:44:44.901Z,18.73
2019-03-02T05:47:15.238Z,20.23
2019-03-02T05:49:45.565Z,18.23
2019-03-02T05:52:17.845Z,17.93
2019-03-02T05:54:47.934Z,14.63
2019-03-02T05:57:18.280Z,15.37
2019-03-02T05:59:48.581Z,15.43
2019-03-02T06:02:18.922Z,17.13
2019-03-02T06:04:49.236Z,16.60
2019-03-02T06:07:19.556Z,18.00
2019-03-02T06:09:50.117Z,16.10
2019-03-02T06:12:21.400Z,17.57
2019-03-02T06:14:51.705Z,19.93
2019-03-02T06:17:22.043Z,15.77
2019-03-02T06:19:52.342Z,19.30
2019-03-02T06:22:22.688Z,17.60
2019-03-02T06:24:53.006Z,16.10
2019-03-02T06:27:23.360Z,15.47
2019-03-02T06:29:53.653Z,15.27
2019-03-02T06:32:25.971Z,18.73
2019-03-02T06:34:57.928Z,16.07
2019-03-02T06:37:31.168Z,17.90
2019-03-02T06:40:01.669Z,21.87
2019-03-02T06:42:32.022Z,18.67
2019-03-02T06:45:05.621Z,19.13
2019-03-02T06:47:35.274Z,16.60
2019-03-02T06:50:06.751Z,18.80
2019-03-02T06:52:37.034Z,20.63
2019-03-02T06:55:08.286Z,18.93
2019-03-02T06:57:39.766Z,20.30
2019-03-02T07:00:13.942Z,25.50
2019-03-02T07:02:44.449Z,22.33
2019-03-02T07:05:14.855Z,21.73
2019-03-02T07:07:45.444Z,23.80
2019-03-02T07:10:17.712Z,20.90
2019-03-02T07:12:49.767Z,24.47
2019-03-02T07:15:20.802Z,21.03
2019-03-02T07:18:14.626Z,24.73
2019-03-02T07:20:45.097Z,22.13
2019-03-02T07:23:15.449Z,28.00
2019-03-02T07:25:48.082Z,24.73
2019-03-02T07:28:18.475Z,29.37
2019-03-02T07:30:49.297Z,24.47
2019-03-02T07:33:20.183Z,26.30
2019-03-02T07:35:51.733Z,27.33
2019-03-02T07:38:25.215Z,32.30
2019-03-02T07:40:57.436Z,33.03
2019-03-02T07:43:27.809Z,29.67
2019-03-02T07:45:58.125Z,29.10
2019-03-02T07:48:28.493Z,31.37
2019-03-02T07:51:01.131Z,36.40
2019-03-02T07:53:31.109Z,36.40
2019-03-02T07:56:01.463Z,31.03
2019-03-02T07:58:31.850Z,34.27
2019-03-02T08:01:02.158Z,31.70
2019-03-02T08:03:32.849Z,30.83
2019-03-02T08:06:03.963Z,32.00
2019-03-02T08:08:34.552Z,31.83
2019-03-02T08:11:04.965Z,32.63
2019-03-02T08:13:36.598Z,32.50
2019-03-02T08:16:07.426Z,32.93
2019-03-02T08:18:37.814Z,36.17
2019-03-02T08:21:08.138Z,34.83
2019-03-02T08:23:40.629Z,32.37
2019-03-02T08:26:10.905Z,31.83
2019-03-02T08:28:42.181Z,28.50
2019-03-02T08:31:13.332Z,30.17
2019-03-02T08:33:46.073Z,27.93
2019-03-02T08:36:16.899Z,30.73
2019-03-02T08:38:48.473Z,29.73
2019-03-02T08:41:18.926Z,29.30
2019-03-02T08:43:49.293Z,27.93
2019-03-02T08:46:19.759Z,25.87
2019-03-02T08:48:50.120Z,22.70
2019-03-02T08:51:21.669Z,24.57
2019-03-02T08:53:52.006Z,23.40
2019-03-02T08:56:22.314Z,23.30
2019-03-02T08:58:52.708Z,19.30
2019-03-02T09:01:23.034Z,20.10
2019-03-02T09:03:53.374Z,19.07
2019-03-02T09:06:23.772Z,14.33
2019-03-02T09:08:54.091Z,14.53
2019-03-02T09:11:24.586Z,16.47
2019-03-02T09:13:54.885Z,18.23
2019-03-02T09:16:25.222Z,15.43
2019-03-02T09:18:55.556Z,16.07
2019-03-02T09:21:25.905Z,15.20
2019-03-02T09:23:56.220Z,15.90
2019-03-02T09:26:26.553Z,16.63
2019-03-02T09:28:57.539Z,16.00
2019-03-02T09:31:27.886Z,17.53
2019-03-02T09:34:01.061Z,16.03
2019-03-02T09:36:31.213Z,15.40
2019-03-02T09:39:02.102Z,17.57
2019-03-02T09:41:32.426Z,15.43
2019-03-02T09:44:02.729Z,17.13
2019-03-02T09:46:34.179Z,14.73
2019-03-02T09:49:04.543Z,16.67
2019-03-02T09:51:36.104Z,18.53
2019-03-02T09:54:05.928Z,14.90
2019-03-02T09:56:36.302Z,14.60
2019-03-02T09:59:06.415Z,13.50
2019-03-02T10:01:39.287Z,14.27
2019-03-02T10:04:08.690Z,14.67
2019-03-02T10:06:39.453Z,18.03
2019-03-02T10:09:10.027Z,15.10
2019-03-02T10:11:40.481Z,13.37
2019-03-02T10:14:28.260Z,16.07
2019-03-02T10:16:58.598Z,18.00
2019-03-02T10:19:29.796Z,16.67
2019-03-02T10:22:00.221Z,14.77
2019-03-02T10:24:30.614Z,16.63
2019-03-02T10:27:00.950Z,16.87
2019-03-02T10:29:32.401Z,18.00
2019-03-02T10:32:04.415Z,20.17
2019-03-02T10:34:34.877Z,19.30
2019-03-02T10:37:07.347Z,23.03
2019-03-02T10:39:37.566Z,24.10
2019-03-02T10:42:07.973Z,19.13
2019-03-02T10:44:38.750Z,18.17
2019-03-02T10:47:09.266Z,21.67
2019-03-02T10:49:39.676Z,19.17
2019-03-02T10:52:13.035Z,23.37
2019-03-02T10:54:41.986Z,22.40
2019-03-02T10:57:12.484Z,20.47
2019-03-02T10:59:42.828Z,23.70
2019-03-02T11:02:13.255Z,24.83
2019-03-02T11:05:21.194Z,22.00
2019-03-02T11:08:09.265Z,23.57
2019-03-02T11:10:52.278Z,22.83
2019-03-02T11:13:41.478Z,23.47
2019-03-02T11:16:25.431Z,23.50
2019-03-02T11:19:17.834Z,28.07
2019-03-02T11:22:04.371Z,26.80
2019-03-02T11:24:44.617Z,23.37
2019-03-02T11:27:21.296Z,21.37
2019-03-02T11:30:12.735Z,24.63
2019-03-02T11:32:52.587Z,23.17
2019-03-02T11:35:33.784Z,23.73
2019-03-02T11:38:27.958Z,24.57
2019-03-02T11:41:17.138Z,24.10
2019-03-02T11:44:05.554Z,23.73
2019-03-02T11:46:55.286Z,26.50
2019-03-02T11:49:45.391Z,23.90
2019-03-02T11:52:35.047Z,25.20
2019-03-02T11:55:30.569Z,26.33
2019-03-02T11:58:18.876Z,24.10
2019-03-02T12:01:14.383Z,20.83
2019-03-02T12:04:02.639Z,22.83
2019-03-02T12:06:51.817Z,24.80
2019-03-02T12:09:30.410Z,23.50
2019-03-02T12:12:35.198Z,26.60
2019-03-02T12:15:24.962Z,23.73
2019-03-02T12:18:12.776Z,28.50
2019-03-02T12:20:59.699Z,24.63
2019-03-02T12:23:37.785Z,25.67
2019-03-02T12:26:19.452Z,20.53
2019-03-02T12:29:20.998Z,24.63
2019-03-02T12:32:03.950Z,24.33
2019-03-02T12:34:45.017Z,25.03
2019-03-02T12:37:36.436Z,21.83
2019-03-02T12:40:28.904Z,23.73
2019-03-02T12:43:12.919Z,23.23
2019-03-02T12:46:01.399Z,23.27
2019-03-02T12:48:53.778Z,24.37
2019-03-02T12:51:39.079Z,22.87
2019-03-02T12:54:24.861Z,25.47
2019-03-02T12:57:08.725Z,24.50
2019-03-02T13:00:00.673Z,24.63
2019-03-02T13:03:08.538Z,22.47
2019-03-02T13:06:00.494Z,26.43
2019-03-02T13:08:46.009Z,27.10
2019-03-02T13:11:28.927Z,25.93
2019-03-02T13:14:17.167Z,26.17
2019-03-02T13:17:03.687Z,27.20
2019-03-02T13:20:08.679Z,23.90
2019-03-02T13:23:08.024Z,25.77
2019-03-02T13:25:58.804Z,26.47
2019-03-02T13:28:48.173Z,24.13
2019-03-02T13:31:46.951Z,26.77
2019-03-02T13:34:36.217Z,30.10
2019-03-02T13:37:30.567Z,25.20
2019-03-02T13:40:15.682Z,29.17
2019-03-02T13:42:52.876Z,28.50
2019-03-02T13:45:51.834Z,32.80
2019-03-02T13:48:38.508Z,33.07
2019-03-02T13:51:29.794Z,27.20
2019-03-02T13:54:09.723Z,28.90
2019-03-02T13:57:01.023Z,27.23
2019-03-02T13:59:53.661Z,28.03
2019-03-02T14:02:55.364Z,29.47
2019-03-02T14:05:44.978Z,32.33
2019-03-02T14:08:33.374Z,28.43
2019-03-02T14:11:19.778Z,29.10
2019-03-02T14:14:12.138Z,28.23
2019-03-02T14:17:13.849Z,33.07
2019-03-02T14:19:55.202Z,31.73
2019-03-02T14:22:31.774Z,32.60
2019-03-02T14:25:13.127Z,35.57
2019-03-02T14:28:12.195Z,31.33
2019-03-02T14:30:48.302Z,31.40
2019-03-02T14:33:33.634Z,32.17
2019-03-02T14:36:10.884Z,30.80
2019-03-02T14:38:57.301Z,30.13
2019-03-02T14:41:44.727Z,30.73
2019-03-02T14:44:34.515Z,29.83
2019-03-02T14:47:27.163Z,27.83
2019-03-02T14:50:06.388Z,29.57
2019-03-02T14:52:48.438Z,37.80
2019-03-02T14:55:34.876Z,27.43
2019-03-02T14:58:23.259Z,26.73
2019-03-02T15:01:18.842Z,31.07
2019-03-02T15:04:14.213Z,29.87
2019-03-02T15:07:06.599Z,29.50
2019-03-02T15:09:49.635Z,29.70
2019-03-02T15:12:58.498Z,30.63
2019-03-02T15:15:47.630Z,28.57
2019-03-02T15:18:36.949Z,32.57
2019-03-02T15:21:31.051Z,29.63
2019-03-02T15:24:23.596Z,28.13
2019-03-02T15:27:20.281Z,27.87
2019-03-02T15:30:15.842Z,28.40
2019-03-02T15:33:08.473Z,30.37
2019-03-02T15:36:07.147Z,28.30
2019-03-02T15:38:49.979Z,29.93
2019-03-02T15:41:42.164Z,30.97
2019-03-02T15:44:29.274Z,29.90
2019-03-02T15:47:16.050Z,28.27
2019-03-02T15:50:08.806Z,32.20
2019-03-02T15:53:07.584Z,29.03
2019-03-02T15:55:57.598Z,28.70
2019-03-02T15:58:55.698Z,30.60
2019-03-02T16:01:54.031Z,28.37
2019-03-02T16:04:47.199Z,27.73
2019-03-02T16:07:51.743Z,29.53
2019-03-02T16:10:59.630Z,30.50
2019-03-02T16:13:50.053Z,32.30
2019-03-02T16:16:38.933Z,28.17
2019-03-02T16:19:34.955Z,31.40
2019-03-02T16:22:30.063Z,33.50
2019-03-02T16:25:21.418Z,33.33
2019-03-02T16:28:05.556Z,28.60
2019-03-02T16:30:55.948Z,31.47
2019-03-02T16:34:04.197Z,30.07
2019-03-02T16:36:50.645Z,33.27
2019-03-02T16:39:42.667Z,30.17
2019-03-02T16:42:25.924Z,28.63
2019-03-02T16:45:10.887Z,31.97
2019-03-02T16:47:57.939Z,30.73
2019-03-02T16:50:53.874Z,27.90
2019-03-02T16:53:46.842Z,32.83
2019-03-02T16:56:45.097Z,32.10
2019-03-02T16:59:32.284Z,93.27
2019-03-02T17:02:27.570Z,39.93
2019-03-02T17:05:23.059Z,31.13
2019-03-02T17:08:05.422Z,32.37
2019-03-02T17:10:52.420Z,33.67
2019-03-02T17:17:34.138Z,29.27
2019-03-02T17:20:27.041Z,32.30
2019-03-02T17:23:24.046Z,34.10
2019-03-02T17:26:09.068Z,31.50
2019-03-02T17:28:57.756Z,28.87
2019-03-02T17:31:53.954Z,30.73
2019-03-02T17:34:45.089Z,29.20
2019-03-02T17:37:28.382Z,29.33
2019-03-02T17:40:16.921Z,29.43
2019-03-02T17:43:03.692Z,29.53
2019-03-02T17:45:49.745Z,28.13
2019-03-02T17:48:31.362Z,29.77
2019-03-02T17:51:23.774Z,28.10
2019-03-02T17:54:12.129Z,30.03
2019-03-02T17:57:04.527Z,27.17
2019-03-02T17:59:52.843Z,26.90
2019-03-02T18:02:31.518Z,28.03
2019-03-02T18:05:28.485Z,27.20
2019-03-02T18:08:14.113Z,25.83
2019-03-02T18:11:13.437Z,27.80
2019-03-02T18:14:02.574Z,27.10
2019-03-02T18:16:55.000Z,34.73
2019-03-02T18:19:25.366Z,71.53
2019-03-02T18:21:57.533Z,60.60
2019-03-02T18:24:27.902Z,46.83
2019-03-02T18:27:00.836Z,56.40
2019-03-02T18:29:38.861Z,32.83
2019-03-02T18:32:19.624Z,38.63
2019-03-02T18:34:50.825Z,32.63
2019-03-02T18:37:21.161Z,28.63
2019-03-02T18:39:51.817Z,30.70
2019-03-02T18:42:27.090Z,28.33
2019-03-02T18:45:00.581Z,30.57
2019-03-02T18:47:31.378Z,30.93
2019-03-02T18:50:28.788Z,31.00
2019-03-02T18:53:02.366Z,28.97
2019-03-02T18:55:33.174Z,33.20
2019-03-02T18:58:08.855Z,30.80
2019-03-02T19:00:45.545Z,29.80
2019-03-02T19:03:15.982Z,29.93
2019-03-02T19:05:50.122Z,26.67
2019-03-02T19:08:18.333Z,29.83
2019-03-02T19:10:48.655Z,30.33
2019-03-02T19:13:19.031Z,31.73
2019-03-02T19:15:53.725Z,31.03
2019-03-02T19:18:22.657Z,34.23
2019-03-02T19:20:53.831Z,28.27
2019-03-02T19:23:27.871Z,26.23
2019-03-02T19:25:59.477Z,26.87
2019-03-02T19:28:31.032Z,26.50
2019-03-02T19:31:03.179Z,32.47
2019-03-02T19:33:35.359Z,27.00
2019-03-02T19:36:07.810Z,27.47
2019-03-02T19:38:39.531Z,26.17
2019-03-02T19:41:11.304Z,26.70
2019-03-02T19:43:44.620Z,28.43
2019-03-02T19:46:15.894Z,25.37
2019-03-02T19:48:47.657Z,24.37
2019-03-02T19:51:20.259Z,27.13
2019-03-02T19:53:51.946Z,25.47
2019-03-02T19:56:23.937Z,22.37
2019-03-02T19:58:58.909Z,24.83
2019-03-02T20:01:30.443Z,28.47
2019-03-02T20:04:03.327Z,23.10
2019-03-02T20:06:36.227Z,24.63
2019-03-02T20:09:08.446Z,27.00
2019-03-02T20:11:40.621Z,25.47
2019-03-02T20:14:12.565Z,21.10
2019-03-02T20:16:44.274Z,23.17
2019-03-02T20:19:16.764Z,21.67
2019-03-02T20:21:48.148Z,23.23
2019-03-02T20:24:20.154Z,19.93
2019-03-02T20:26:51.967Z,19.87
2019-03-02T20:29:23.512Z,21.20
2019-03-02T20:31:55.363Z,22.70
2019-03-02T20:34:26.887Z,20.80
2019-03-02T20:36:59.925Z,18.80
2019-03-02T20:39:31.510Z,17.00
2019-03-02T20:42:01.772Z,17.53
2019-03-02T20:44:33.804Z,16.37
2019-03-02T20:47:05.990Z,16.97
2019-03-02T20:49:40.810Z,16.17
2019-03-02T20:52:12.063Z,15.33
2019-03-02T20:54:45.538Z,14.87
2019-03-02T20:57:17.923Z,19.93
2019-03-02T20:59:49.031Z,19.17
2019-03-02T21:02:20.908Z,14.83
2019-03-02T21:04:53.081Z,14.03
2019-03-02T21:07:24.937Z,13.50
2019-03-02T21:09:59.529Z,14.33
2019-03-02T21:12:29.981Z,16.73
2019-03-02T21:15:01.867Z,15.53
2019-03-02T21:17:33.693Z,14.90
2019-03-02T21:20:08.206Z,14.60
2019-03-02T21:22:39.888Z,15.07
2019-03-02T21:25:12.507Z,12.73
2019-03-02T21:27:43.010Z,14.40
2019-03-02T21:30:14.637Z,14.43
2019-03-02T21:32:44.970Z,13.13
2019-03-02T21:35:16.905Z,13.93
2019-03-02T21:37:49.199Z,11.17
2019-03-02T21:40:21.696Z,10.27
2019-03-02T21:42:53.873Z,11.73
2019-03-02T21:45:26.034Z,9.70
2019-03-02T21:47:57.391Z,12.67
2019-03-02T21:50:28.788Z,9.53
2019-03-02T21:53:00.267Z,10.63
2019-03-02T21:55:32.057Z,11.23
2019-03-02T21:58:03.947Z,11.50
2019-03-02T22:00:35.901Z,8.63
2019-03-02T22:03:07.701Z,9.90
2019-03-02T22:05:40.201Z,8.23
2019-03-02T22:08:11.840Z,8.13
2019-03-02T22:10:52.730Z,10.07
2019-03-02T22:13:23.717Z,7.50
2019-03-02T22:15:55.448Z,8.13
2019-03-02T22:18:26.979Z,8.57
2019-03-02T22:20:59.148Z,7.47
2019-03-02T22:23:31.168Z,8.97
2019-03-02T22:26:02.647Z,7.30
2019-03-02T22:28:34.173Z,8.20
2019-03-02T22:31:07.257Z,6.43
2019-03-02T22:33:40.954Z,6.83
2019-03-02T22:36:12.891Z,6.67
2019-03-02T22:38:44.338Z,7.30
2019-03-02T22:41:17.185Z,7.70
2019-03-02T22:43:48.709Z,7.47
2019-03-02T22:46:20.526Z,6.13
2019-03-02T22:48:51.428Z,6.33
2019-03-02T22:51:23.452Z,5.60
2019-03-02T22:53:55.208Z,8.23
2019-03-02T22:56:25.141Z,6.63
2019-03-02T22:58:54.180Z,5.23
2019-03-02T23:02:10.476Z,5.40
2019-03-02T23:04:42.557Z,5.13
2019-03-02T23:07:15.494Z,5.40
2019-03-02T23:09:47.323Z,7.43
2019-03-02T23:12:19.378Z,5.43
2019-03-02T23:14:50.363Z,5.40
2019-03-02T23:17:20.666Z,8.73
2019-03-02T23:19:53.869Z,7.57
2019-03-02T23:22:24.326Z,8.20
2019-03-02T23:24:54.706Z,7.97
2019-03-02T23:27:25.006Z,6.87
2019-03-02T23:29:55.411Z,7.30
2019-03-02T23:32:27.772Z,7.40
2019-03-02T23:34:57.930Z,7.40
2019-03-02T23:37:28.257Z,8.13
2019-03-02T23:39:58.679Z,8.00
2019-03-02T23:42:29.063Z,7.10
2019-03-02T23:44:59.395Z,6.47
2019-03-02T23:47:29.702Z,7.17
2019-03-02T23:50:00.282Z,8.07
2019-03-02T23:52:31.878Z,8.10
2019-03-02T23:55:03.193Z,8.77
2019-03-02T23:57:33.569Z,7.43
